sensor_id;sensor_type;location;lat;lon;timestamp;pressure;altitude;pressure_sealevel;temperature;humidity
12664;BME280;6396;58.490;15.528;2023-03-13T00:01:24;99435.16;;;-2.07;100.00
12664;BME280;6396;58.490;15.528;2023-03-13T00:03:51;99557.97;;;-1.19;100.00
12664;BME280;6396;58.490;15.528;2023-03-13T00:06:20;99095.91;;;-3.97;100.00
12664;BME280;6396;58.490;15.528;2023-03-13T00:08:48;99497.56;;;-1.23;100.00
12664;BME280;6396;58.490;15.528;2023-03-13T00:11:15;99403.38;;;-1.71;100.00
12664;BME280;6396;58.490;15.528;2023-03-13T00:13:42;99040.16;;;-3.89;100.00
12664;BME280;6396;58.490;15.528;2023-03-13T00:16:12;99551.06;;;-1.25;100.00
12664;BME280;6396;58.490;15.528;2023-03-13T00:18:44;99178.00;;;-3.28;100.00
12664;BME280;6396;58.490;15.528;2023-03-13T00:21:11;99341.22;;;-2.07;100.00
12664;BME280;6396;58.490;15.528;2023-03-13T00:23:38;99482.88;;;-1.27;100.00
12664;BME280;6396;58.490;15.528;2023-03-13T00:26:07;99478.53;;;-1.31;100.00
12664;BME280;6396;58.490;15.528;2023-03-13T00:28:35;99442.25;;;-1.52;100.00
12664;BME280;6396;58.490;15.528;2023-03-13T00:31:04;99468.16;;;-1.40;100.00
12664;BME280;6396;58.490;15.528;2023-03-13T00:33:33;99126.34;;;-3.37;100.00
12664;BME280;6396;58.490;15.528;2023-03-13T00:36:01;99367.94;;;-2.01;100.00
12664;BME280;6396;58.490;15.528;2023-03-13T00:38:29;99464.72;;;-1.34;100.00
12664;BME280;6396;58.490;15.528;2023-03-13T00:41:00;99460.41;;;-1.29;100.00
12664;BME280;6396;58.490;15.528;2023-03-13T00:43:28;99123.03;;;-3.15;100.00
12664;BME280;6396;58.490;15.528;2023-03-13T00:45:55;99459.56;;;-1.27;100.00
12664;BME280;6396;58.490;15.528;2023-03-13T00:48:22;99428.53;;;-1.19;100.00
12664;BME280;6396;58.490;15.528;2023-03-13T00:50:50;99231.75;;;-2.28;100.00
12664;BME280;6396;58.490;15.528;2023-03-13T00:53:17;99210.13;;;-2.60;100.00
12664;BME280;6396;58.490;15.528;2023-03-13T00:55:52;99454.44;;;-1.07;100.00
12664;BME280;6396;58.490;15.528;2023-03-13T00:58:19;99150.75;;;-2.51;100.00
12664;BME280;6396;58.490;15.528;2023-03-13T01:00:46;99052.53;;;-3.02;100.00
12664;BME280;6396;58.490;15.528;2023-03-13T01:03:13;99055.09;;;-3.05;100.00
12664;BME280;6396;58.490;15.528;2023-03-13T01:05:40;99283.53;;;-1.84;100.00
12664;BME280;6396;58.490;15.528;2023-03-13T01:08:08;99381.06;;;-1.18;100.00
12664;BME280;6396;58.490;15.528;2023-03-13T01:10:35;99310.25;;;-1.86;100.00
12664;BME280;6396;58.490;15.528;2023-03-13T01:13:02;99249.03;;;-1.96;100.00
12664;BME280;6396;58.490;15.528;2023-03-13T01:15:29;99271.47;;;-1.61;100.00
12664;BME280;6396;58.490;15.528;2023-03-13T01:17:56;98919.00;;;-3.99;100.00
12664;BME280;6396;58.490;15.528;2023-03-13T01:20:23;98716.13;;;-4.82;100.00
12664;BME280;6396;58.490;15.528;2023-03-13T01:22:49;99051.69;;;-2.84;100.00
12664;BME280;6396;58.490;15.528;2023-03-13T01:25:18;99193.84;;;-2.35;100.00
12664;BME280;6396;58.490;15.528;2023-03-13T01:27:45;99461.34;;;-0.95;100.00
12664;BME280;6396;58.490;15.528;2023-03-13T01:30:12;99313.75;;;-1.12;100.00
12664;BME280;6396;58.490;15.528;2023-03-13T01:32:39;98856.91;;;-4.64;100.00
12664;BME280;6396;58.490;15.528;2023-03-13T01:35:06;99244.75;;;-1.61;100.00
12664;BME280;6396;58.490;15.528;2023-03-13T01:37:33;99341.34;;;-0.96;100.00
12664;BME280;6396;58.490;15.528;2023-03-13T01:39:59;99031.03;;;-2.80;100.00
12664;BME280;6396;58.490;15.528;2023-03-13T01:42:27;99231.81;;;-1.82;100.00
12664;BME280;6396;58.490;15.528;2023-03-13T01:44:56;99200.75;;;-1.96;100.00
12664;BME280;6396;58.490;15.528;2023-03-13T01:47:23;99191.31;;;-1.98;100.00
12664;BME280;6396;58.490;15.528;2023-03-13T01:49:50;99184.41;;;-1.96;100.00
12664;BME280;6396;58.490;15.528;2023-03-13T01:52:19;99167.16;;;-2.00;100.00
12664;BME280;6396;58.490;15.528;2023-03-13T01:54:55;99058.59;;;-2.79;100.00
12664;BME280;6396;58.490;15.528;2023-03-13T01:57:24;99110.31;;;-2.12;100.00
12664;BME280;6396;58.490;15.528;2023-03-13T01:59:56;99257.66;;;-1.18;100.00
12664;BME280;6396;58.490;15.528;2023-03-13T02:02:26;99126.66;;;-1.94;100.00
12664;BME280;6396;58.490;15.528;2023-03-13T02:04:56;99273.19;;;-1.08;100.00
12664;BME280;6396;58.490;15.528;2023-03-13T02:07:28;98994.81;;;-3.37;100.00
12664;BME280;6396;58.490;15.528;2023-03-13T02:09:56;99301.66;;;-1.02;100.00
12664;BME280;6396;58.490;15.528;2023-03-13T02:12:28;99290.44;;;-1.09;100.00
12664;BME280;6396;58.490;15.528;2023-03-13T02:15:00;99006.09;;;-2.85;100.00
12664;BME280;6396;58.490;15.528;2023-03-13T02:17:28;98390.91;;;-6.42;100.00
12664;BME280;6396;58.490;15.528;2023-03-13T02:19:55;99274.91;;;-0.98;100.00
12664;BME280;6396;58.490;15.528;2023-03-13T02:22:26;99037.09;;;-2.67;100.00
12664;BME280;6396;58.490;15.528;2023-03-13T02:24:58;98933.81;;;-3.02;100.00
12664;BME280;6396;58.490;15.528;2023-03-13T02:27:29;98782.44;;;-4.13;100.00
12664;BME280;6396;58.490;15.528;2023-03-13T02:29:57;98781.59;;;-3.98;100.00
12664;BME280;6396;58.490;15.528;2023-03-13T02:32:25;99374.16;;;-0.86;100.00
12664;BME280;6396;58.490;15.528;2023-03-13T02:34:55;98943.28;;;-2.56;100.00
12664;BME280;6396;58.490;15.528;2023-03-13T02:37:24;98605.50;;;-4.76;100.00
12664;BME280;6396;58.490;15.528;2023-03-13T02:39:55;99135.22;;;-1.59;100.00
12664;BME280;6396;58.490;15.528;2023-03-13T02:42:24;98622.72;;;-4.22;100.00
12664;BME280;6396;58.490;15.528;2023-03-13T02:44:52;98803.94;;;-3.16;100.00
12664;BME280;6396;58.490;15.528;2023-03-13T02:47:20;99127.47;;;-1.60;100.00
12664;BME280;6396;58.490;15.528;2023-03-13T02:49:47;99229.94;;;-0.84;100.00
12664;BME280;6396;58.490;15.528;2023-03-13T02:52:18;99074.97;;;-1.89;100.00
12664;BME280;6396;58.490;15.528;2023-03-13T02:54:51;99062.91;;;-2.22;100.00
12664;BME280;6396;58.490;15.528;2023-03-13T02:57:18;99225.69;;;-0.95;100.00
12664;BME280;6396;58.490;15.528;2023-03-13T02:59:45;98785.91;;;-3.76;100.00
12664;BME280;6396;58.490;15.528;2023-03-13T03:02:13;98650.22;;;-4.04;100.00
12664;BME280;6396;58.490;15.528;2023-03-13T03:04:40;98320.06;;;-5.90;100.00
12664;BME280;6396;58.490;15.528;2023-03-13T03:07:07;99026.66;;;-1.77;100.00
12664;BME280;6396;58.490;15.528;2023-03-13T03:09:34;99070.59;;;-1.69;100.00
12664;BME280;6396;58.490;15.528;2023-03-13T03:12:01;99169.50;;;-0.81;100.00
12664;BME280;6396;58.490;15.528;2023-03-13T03:14:28;98747.22;;;-4.12;100.00
12664;BME280;6396;58.490;15.528;2023-03-13T03:16:54;99196.28;;;-0.85;100.00
12664;BME280;6396;58.490;15.528;2023-03-13T03:19:23;99012.84;;;-1.82;100.00
12664;BME280;6396;58.490;15.528;2023-03-13T03:21:50;99164.34;;;-0.89;100.00
12664;BME280;6396;58.490;15.528;2023-03-13T03:24:17;98963.88;;;-2.29;100.00
12664;BME280;6396;58.490;15.528;2023-03-13T03:26:44;99147.09;;;-0.87;100.00
12664;BME280;6396;58.490;15.528;2023-03-13T03:29:32;98663.94;;;-4.20;100.00
12664;BME280;6396;58.490;15.528;2023-03-13T03:32:06;99149.66;;;-0.79;100.00
12664;BME280;6396;58.490;15.528;2023-03-13T03:37:47;99216.16;;;-0.83;100.00
12664;BME280;6396;58.490;15.528;2023-03-13T03:40:29;98423.63;;;-5.70;100.00
12664;BME280;6396;58.490;15.528;2023-03-13T03:43:11;98347.41;;;-5.98;100.00
12664;BME280;6396;58.490;15.528;2023-03-13T03:46:24;98270.31;;;-6.42;100.00
12664;BME280;6396;58.490;15.528;2023-03-13T03:49:11;98449.38;;;-5.50;100.00
12664;BME280;6396;58.490;15.528;2023-03-13T03:52:12;98375.72;;;-5.85;100.00
12664;BME280;6396;58.490;15.528;2023-03-13T04:18:41;99063.13;;;-0.56;100.00
12664;BME280;6396;58.490;15.528;2023-03-13T04:21:13;99061.44;;;-0.63;100.00
12664;BME280;6396;58.490;15.528;2023-03-13T04:24:22;98156.59;;;-6.27;100.00
12664;BME280;6396;58.490;15.528;2023-03-13T04:27:47;99038.25;;;-0.78;100.00
12664;BME280;6396;58.490;15.528;2023-03-13T04:30:28;98284.09;;;-5.92;100.00
12664;BME280;6396;58.490;15.528;2023-03-13T04:32:57;98552.28;;;-3.98;100.00
12664;BME280;6396;58.490;15.528;2023-03-13T04:39:14;98856.91;;;-1.91;100.00
12664;BME280;6396;58.490;15.528;2023-03-13T04:52:28;98150.50;;;-5.64;100.00
12664;BME280;6396;58.490;15.528;2023-03-13T04:54:58;98136.03;;;-6.14;100.00
12664;BME280;6396;58.490;15.528;2023-03-13T04:57:26;98716.50;;;-2.01;100.00
12664;BME280;6396;58.490;15.528;2023-03-13T04:59:54;98940.59;;;-0.70;100.00
12664;BME280;6396;58.490;15.528;2023-03-13T05:02:21;98108.66;;;-6.00;100.00
12664;BME280;6396;58.490;15.528;2023-03-13T05:04:48;98939.78;;;-0.72;100.00
12664;BME280;6396;58.490;15.528;2023-03-13T05:07:15;99019.19;;;-0.68;100.00
12664;BME280;6396;58.490;15.528;2023-03-13T05:09:43;98927.72;;;-0.74;100.00
12664;BME280;6396;58.490;15.528;2023-03-13T05:12:10;98866.66;;;-1.02;100.00
12664;BME280;6396;58.490;15.528;2023-03-13T05:14:40;97931.66;;;-6.43;100.00
12664;BME280;6396;58.490;15.528;2023-03-13T05:17:08;98088.88;;;-5.78;100.00
12664;BME280;6396;58.490;15.528;2023-03-13T05:19:44;98050.41;;;-5.86;100.00
12664;BME280;6396;58.490;15.528;2023-03-13T05:22:13;98321.28;;;-3.96;100.00
12664;BME280;6396;58.490;15.528;2023-03-13T05:24:40;98204.88;;;-4.53;100.00
12664;BME280;6396;58.490;15.528;2023-03-13T05:27:10;98691.16;;;-2.75;100.00
12664;BME280;6396;58.490;15.528;2023-03-13T05:29:56;97976.03;;;-6.02;100.00
12664;BME280;6396;58.490;15.528;2023-03-13T05:32:39;98827.53;;;-0.72;100.00
12664;BME280;6396;58.490;15.528;2023-03-13T05:35:06;98707.41;;;-1.41;100.00
12664;BME280;6396;58.490;15.528;2023-03-13T05:37:34;98499.91;;;-2.52;100.00
12664;BME280;6396;58.490;15.528;2023-03-13T05:40:01;98881.03;;;-0.71;100.00
12664;BME280;6396;58.490;15.528;2023-03-13T05:42:30;98653.28;;;-1.62;100.00
12664;BME280;6396;58.490;15.528;2023-03-13T05:44:57;98546.31;;;-2.43;100.00
12664;BME280;6396;58.490;15.528;2023-03-13T05:47:23;98845.84;;;-0.92;100.00
12664;BME280;6396;58.490;15.528;2023-03-13T05:49:50;98835.13;;;-0.54;100.00
12664;BME280;6396;58.490;15.528;2023-03-13T05:52:17;98807.91;;;-0.97;100.00
12664;BME280;6396;58.490;15.528;2023-03-13T05:54:44;98412.72;;;-3.18;100.00
12664;BME280;6396;58.490;15.528;2023-03-13T05:57:11;98504.66;;;-2.08;100.00
12664;BME280;6396;58.490;15.528;2023-03-13T06:00:00;98041.72;;;-5.60;100.00
12664;BME280;6396;58.490;15.528;2023-03-13T06:02:27;98460.19;;;-2.39;100.00
12664;BME280;6396;58.490;15.528;2023-03-13T06:04:54;98469.44;;;-2.15;100.00
12664;BME280;6396;58.490;15.528;2023-03-13T06:07:21;98691.16;;;-0.78;100.00
12664;BME280;6396;58.490;15.528;2023-03-13T06:09:48;98756.50;;;-0.53;100.00
12664;BME280;6396;58.490;15.528;2023-03-13T06:12:15;98474.59;;;-2.18;100.00
12664;BME280;6396;58.490;15.528;2023-03-13T06:14:42;98231.44;;;-3.35;100.00
12664;BME280;6396;58.490;15.528;2023-03-13T06:17:11;98679.13;;;-0.82;100.00
12664;BME280;6396;58.490;15.528;2023-03-13T06:19:38;98732.81;;;-0.25;100.00
12664;BME280;6396;58.490;15.528;2023-03-13T06:22:05;98428.75;;;-2.00;100.00
12664;BME280;6396;58.490;15.528;2023-03-13T06:24:32;98341.19;;;-2.24;100.00
12664;BME280;6396;58.490;15.528;2023-03-13T06:26:59;98743.91;;;-0.15;100.00
12664;BME280;6396;58.490;15.528;2023-03-13T06:29:26;98564.66;;;-1.05;100.00
12664;BME280;6396;58.490;15.528;2023-03-13T06:31:54;98373.03;;;-2.20;100.00
12664;BME280;6396;58.490;15.528;2023-03-13T06:34:23;98738.50;;;-0.02;100.00
12664;BME280;6396;58.490;15.528;2023-03-13T06:36:52;98187.41;;;-3.16;100.00
12664;BME280;6396;58.490;15.528;2023-03-13T06:39:25;98332.38;;;-2.81;100.00
12664;BME280;6396;58.490;15.528;2023-03-13T06:41:55;98730.69;;;0.02;100.00
12664;BME280;6396;58.490;15.528;2023-03-13T06:44:21;98443.53;;;-1.44;100.00
12664;BME280;6396;58.490;15.528;2023-03-13T06:46:48;98106.66;;;-3.22;100.00
12664;BME280;6396;58.490;15.528;2023-03-13T06:49:15;98199.72;;;-2.68;100.00
12664;BME280;6396;58.490;15.528;2023-03-13T06:52:13;97822.19;;;-5.22;100.00
12664;BME280;6396;58.490;15.528;2023-03-13T06:54:42;98758.09;;;0.18;100.00
12664;BME280;6396;58.490;15.528;2023-03-13T06:57:10;98519.41;;;-0.80;100.00
12664;BME280;6396;58.490;15.528;2023-03-13T06:59:37;97652.16;;;-5.63;100.00
12664;BME280;6396;58.490;15.528;2023-03-13T07:02:10;97759.88;;;-5.45;100.00
12664;BME280;6396;58.490;15.528;2023-03-13T07:04:38;98060.75;;;-2.98;100.00
12664;BME280;6396;58.490;15.528;2023-03-13T07:07:06;98257.59;;;-2.20;100.00
12664;BME280;6396;58.490;15.528;2023-03-13T07:09:35;98629.03;;;0.33;100.00
12664;BME280;6396;58.490;15.528;2023-03-13T07:12:03;98145.88;;;-2.96;100.00
12664;BME280;6396;58.490;15.528;2023-03-13T07:14:30;97797.59;;;-4.68;100.00
12664;BME280;6396;58.490;15.528;2023-03-13T07:16:58;97775.78;;;-4.38;100.00
12664;BME280;6396;58.490;15.528;2023-03-13T07:19:25;98614.25;;;-0.15;100.00
12664;BME280;6396;58.490;15.528;2023-03-13T07:21:53;98155.53;;;-1.93;100.00
12664;BME280;6396;58.490;15.528;2023-03-13T07:24:21;97857.84;;;-3.55;100.00
12664;BME280;6396;58.490;15.528;2023-03-13T07:26:51;98638.91;;;0.59;100.00
12664;BME280;6396;58.490;15.528;2023-03-13T07:29:18;98001.59;;;-2.57;100.00
12664;BME280;6396;58.490;15.528;2023-03-13T07:31:45;97602.25;;;-5.41;100.00
12664;BME280;6396;58.490;15.528;2023-03-13T07:34:12;98255.69;;;-1.51;100.00
12664;BME280;6396;58.490;15.528;2023-03-13T07:36:40;98183.22;;;-1.50;100.00
12664;BME280;6396;58.490;15.528;2023-03-13T07:39:08;98073.88;;;-2.03;100.00
12664;BME280;6396;58.490;15.528;2023-03-13T07:41:35;97980.56;;;-2.36;100.00
12664;BME280;6396;58.490;15.528;2023-03-13T07:44:04;98414.59;;;-0.61;100.00
12664;BME280;6396;58.490;15.528;2023-03-13T07:46:31;98242.41;;;-0.84;100.00
12664;BME280;6396;58.490;15.528;2023-03-13T07:48:57;97744.47;;;-3.57;100.00
12664;BME280;6396;58.490;15.528;2023-03-13T07:51:25;98332.31;;;-0.04;100.00
12664;BME280;6396;58.490;15.528;2023-03-13T07:53:53;98506.59;;;0.56;100.00
12664;BME280;6396;58.490;15.528;2023-03-13T07:56:21;98007.09;;;-1.79;100.00
12664;BME280;6396;58.490;15.528;2023-03-13T07:58:49;98391.19;;;0.32;100.00
12664;BME280;6396;58.490;15.528;2023-03-13T08:01:19;98362.31;;;0.46;100.00
12664;BME280;6396;58.490;15.528;2023-03-13T08:03:47;97890.03;;;-2.28;100.00
12664;BME280;6396;58.490;15.528;2023-03-13T08:06:16;98376.63;;;0.63;100.00
12664;BME280;6396;58.490;15.528;2023-03-13T08:08:43;98135.91;;;-0.69;100.00
12664;BME280;6396;58.490;15.528;2023-03-13T08:11:12;98116.97;;;-0.73;100.00
12664;BME280;6396;58.490;15.528;2023-03-13T08:13:40;98106.47;;;-0.65;100.00
12664;BME280;6396;58.490;15.528;2023-03-13T08:16:08;98126.78;;;-0.49;100.00
12664;BME280;6396;58.490;15.528;2023-03-13T08:18:39;98295.53;;;-0.21;100.00
12664;BME280;6396;58.490;15.528;2023-03-13T08:21:07;97632.53;;;-3.89;100.00
12664;BME280;6396;58.490;15.528;2023-03-13T08:23:34;98086.25;;;-0.50;100.00
12664;BME280;6396;58.490;15.528;2023-03-13T08:26:03;98400.72;;;1.40;100.00
12664;BME280;6396;58.490;15.528;2023-03-13T08:28:31;97986.81;;;-1.18;100.00
12664;BME280;6396;58.490;15.528;2023-03-13T08:30:58;97957.84;;;-1.33;100.00
12664;BME280;6396;58.490;15.528;2023-03-13T08:33:24;98061.97;;;-0.46;100.00
12664;BME280;6396;58.490;15.528;2023-03-13T08:35:53;98046.53;;;-0.50;100.00
12664;BME280;6396;58.490;15.528;2023-03-13T08:38:19;97776.78;;;-2.06;100.00
12664;BME280;6396;58.490;15.528;2023-03-13T08:40:46;98082.41;;;-0.34;100.00
12664;BME280;6396;58.490;15.528;2023-03-13T08:43:13;98326.25;;;0.72;100.00
12664;BME280;6396;58.490;15.528;2023-03-13T08:45:40;97542.19;;;-3.36;100.00
12664;BME280;6396;58.490;15.528;2023-03-13T08:48:06;98223.25;;;0.72;100.00
12664;BME280;6396;58.490;15.528;2023-03-13T08:50:33;98347.25;;;1.64;100.00
12664;BME280;6396;58.490;15.528;2023-03-13T08:53:01;98368.72;;;1.70;100.00
12664;BME280;6396;58.490;15.528;2023-03-13T08:55:28;98321.88;;;1.72;100.00
12664;BME280;6396;58.490;15.528;2023-03-13T08:57:55;98005.84;;;-0.13;100.00
12664;BME280;6396;58.490;15.528;2023-03-13T09:00:22;98138.97;;;0.20;100.00
12664;BME280;6396;58.490;15.528;2023-03-13T09:02:48;98240.09;;;1.53;100.00
12664;BME280;6396;58.490;15.528;2023-03-13T09:05:15;98275.63;;;1.83;100.00
12664;BME280;6396;58.490;15.528;2023-03-13T09:07:43;98250.72;;;1.45;100.00
12664;BME280;6396;58.490;15.528;2023-03-13T09:10:11;98313.66;;;1.87;100.00
12664;BME280;6396;58.490;15.528;2023-03-13T09:12:38;98234.03;;;1.54;100.00
12664;BME280;6396;58.490;15.528;2023-03-13T09:15:06;98257.19;;;1.90;100.00
12664;BME280;6396;58.490;15.528;2023-03-13T09:17:33;98244.00;;;1.67;100.00
12664;BME280;6396;58.490;15.528;2023-03-13T09:20:00;98290.09;;;1.91;100.00
12664;BME280;6396;58.490;15.528;2023-03-13T09:22:28;97911.53;;;-0.08;100.00
12664;BME280;6396;58.490;15.528;2023-03-13T09:24:55;97947.66;;;0.29;100.00
12664;BME280;6396;58.490;15.528;2023-03-13T09:27:23;98061.78;;;0.90;100.00
12664;BME280;6396;58.490;15.528;2023-03-13T09:29:50;97848.22;;;-0.31;100.00
12664;BME280;6396;58.490;15.528;2023-03-13T09:32:16;97772.22;;;-1.25;100.00
12664;BME280;6396;58.490;15.528;2023-03-13T09:34:44;97880.22;;;-0.02;100.00
12664;BME280;6396;58.490;15.528;2023-03-13T09:37:11;97567.72;;;-1.83;100.00
12664;BME280;6396;58.490;15.528;2023-03-13T09:39:38;97909.59;;;-0.01;100.00
12664;BME280;6396;58.490;15.528;2023-03-13T09:42:11;97906.13;;;0.29;100.00
12664;BME280;6396;58.490;15.528;2023-03-13T09:44:45;97850.69;;;0.04;100.00
12664;BME280;6396;58.490;15.528;2023-03-13T09:47:19;97834.47;;;-0.03;100.00
12664;BME280;6396;58.490;15.528;2023-03-13T09:49:50;97978.56;;;0.66;100.00
12664;BME280;6396;58.490;15.528;2023-03-13T09:52:23;98175.41;;;1.99;100.00
12664;BME280;6396;58.490;15.528;2023-03-13T09:54:54;97967.34;;;0.93;100.00
12664;BME280;6396;58.490;15.528;2023-03-13T09:57:30;97648.00;;;-0.93;100.00
12664;BME280;6396;58.490;15.528;2023-03-13T10:00:04;97973.59;;;1.15;100.00
12664;BME280;6396;58.490;15.528;2023-03-13T10:02:37;98024.50;;;1.48;100.00
12664;BME280;6396;58.490;15.528;2023-03-13T10:05:09;98142.94;;;2.10;100.00
12664;BME280;6396;58.490;15.528;2023-03-13T10:07:38;97529.94;;;-1.28;100.00
12664;BME280;6396;58.490;15.528;2023-03-13T10:10:11;97444.97;;;-2.30;100.00
12664;BME280;6396;58.490;15.528;2023-03-13T10:12:43;97709.38;;;-0.09;100.00
12664;BME280;6396;58.490;15.528;2023-03-13T10:15:33;97500.13;;;-1.39;100.00
12664;BME280;6396;58.490;15.528;2023-03-13T10:18:11;97116.63;;;-3.93;100.00
12664;BME280;6396;58.490;15.528;2023-03-13T10:20:40;98147.06;;;2.17;100.00
12664;BME280;6396;58.490;15.528;2023-03-13T10:23:14;97711.84;;;0.22;100.00
12664;BME280;6396;58.490;15.528;2023-03-13T10:25:41;98144.22;;;2.25;100.00
12664;BME280;6396;58.490;15.528;2023-03-13T10:28:10;98040.00;;;2.28;100.00
12664;BME280;6396;58.490;15.528;2023-03-13T10:30:43;97993.56;;;1.91;100.00
12664;BME280;6396;58.490;15.528;2023-03-13T10:33:23;97598.94;;;-0.15;100.00
12664;BME280;6396;58.490;15.528;2023-03-13T10:36:07;97940.06;;;1.84;100.00
12664;BME280;6396;58.490;15.528;2023-03-13T10:38:45;97915.91;;;1.81;100.00
12664;BME280;6396;58.490;15.528;2023-03-13T10:41:26;97864.97;;;1.52;100.00
12664;BME280;6396;58.490;15.528;2023-03-13T10:43:54;97577.84;;;-0.04;100.00
12664;BME280;6396;58.490;15.528;2023-03-13T10:46:27;98100.19;;;2.44;100.00
12664;BME280;6396;58.490;15.528;2023-03-13T10:48:54;98097.69;;;2.41;100.00
12664;BME280;6396;58.490;15.528;2023-03-13T10:51:23;97790.84;;;0.65;100.00
12664;BME280;6396;58.490;15.528;2023-03-13T10:53:50;97664.72;;;0.60;100.00
12664;BME280;6396;58.490;15.528;2023-03-13T10:56:29;97991.19;;;2.58;100.00
12664;BME280;6396;58.490;15.528;2023-03-13T10:58:56;97495.22;;;-0.91;100.00
12664;BME280;6396;58.490;15.528;2023-03-13T11:01:27;97661.28;;;0.84;100.00
12664;BME280;6396;58.490;15.528;2023-03-13T11:03:56;97591.91;;;0.64;100.00
12664;BME280;6396;58.490;15.528;2023-03-13T11:06:27;97638.16;;;1.01;100.00
12664;BME280;6396;58.490;15.528;2023-03-13T11:08:59;97664.97;;;1.01;100.00
12664;BME280;6396;58.490;15.528;2023-03-13T11:11:27;97617.91;;;0.38;100.00
12664;BME280;6396;58.490;15.528;2023-03-13T11:14:06;97789.47;;;1.78;100.00
12664;BME280;6396;58.490;15.528;2023-03-13T11:16:39;97718.53;;;1.75;100.00
12664;BME280;6396;58.490;15.528;2023-03-13T11:19:28;97878.34;;;2.80;100.00
12664;BME280;6396;58.490;15.528;2023-03-13T11:22:06;97862.97;;;2.74;100.00
12664;BME280;6396;58.490;15.528;2023-03-13T11:24:43;97950.66;;;2.74;100.00
12664;BME280;6396;58.490;15.528;2023-03-13T11:27:19;97703.66;;;1.78;100.00
12664;BME280;6396;58.490;15.528;2023-03-13T11:29:59;97740.34;;;2.15;100.00
12664;BME280;6396;58.490;15.528;2023-03-13T11:32:36;97257.81;;;-0.63;100.00
12664;BME280;6396;58.490;15.528;2023-03-13T11:35:10;97104.28;;;-1.84;100.00
12664;BME280;6396;58.490;15.528;2023-03-13T11:37:40;97381.63;;;-0.02;100.00
12664;BME280;6396;58.490;15.528;2023-03-13T11:40:17;97852.13;;;2.85;100.00
12664;BME280;6396;58.490;15.528;2023-03-13T11:43:07;97364.97;;;-0.67;100.00
12664;BME280;6396;58.490;15.528;2023-03-13T11:46:00;97828.31;;;2.72;100.00
12664;BME280;6396;58.490;15.528;2023-03-13T11:49:01;96894.50;;;-2.43;100.00
12664;BME280;6396;58.490;15.528;2023-03-13T11:51:47;97891.78;;;2.70;100.00
12664;BME280;6396;58.490;15.528;2023-03-13T11:54:44;97058.91;;;-1.45;100.00
12664;BME280;6396;58.490;15.528;2023-03-13T11:57:24;97429.13;;;0.89;100.00
12664;BME280;6396;58.490;15.528;2023-03-13T12:02:49;97455.88;;;0.47;100.00
12664;BME280;6396;58.490;15.528;2023-03-13T12:05:20;97554.16;;;1.88;100.00
12664;BME280;6396;58.490;15.528;2023-03-13T12:07:52;97537.91;;;1.83;100.00
12664;BME280;6396;58.490;15.528;2023-03-13T12:10:25;97378.47;;;1.01;100.00
12664;BME280;6396;58.490;15.528;2023-03-13T12:12:59;97068.41;;;-0.99;100.00
12664;BME280;6396;58.490;15.528;2023-03-13T12:15:31;97235.38;;;-0.41;100.00
12664;BME280;6396;58.490;15.528;2023-03-13T12:18:02;97328.88;;;0.87;100.00
12664;BME280;6396;58.490;15.528;2023-03-13T12:20:39;97323.53;;;0.90;100.00
12664;BME280;6396;58.490;15.528;2023-03-13T12:23:16;97504.19;;;1.82;100.00
12664;BME280;6396;58.490;15.528;2023-03-13T12:25:46;97635.13;;;2.83;100.00
12664;BME280;6396;58.490;15.528;2023-03-13T12:28:22;97453.53;;;1.90;100.00
12664;BME280;6396;58.490;15.528;2023-03-13T12:30:57;97292.13;;;0.96;100.00
12664;BME280;6396;58.490;15.528;2023-03-13T12:33:29;97048.16;;;-0.45;100.00
12664;BME280;6396;58.490;15.528;2023-03-13T12:36:04;97594.09;;;2.88;100.00
12664;BME280;6396;58.490;15.528;2023-03-13T12:38:38;97204.56;;;0.59;100.00
12664;BME280;6396;58.490;15.528;2023-03-13T12:41:13;96717.84;;;-2.36;100.00
12664;BME280;6396;58.490;15.528;2023-03-13T12:43:47;97269.72;;;0.93;100.00
12664;BME280;6396;58.490;15.528;2023-03-13T12:46:34;96831.56;;;-2.15;100.00
12664;BME280;6396;58.490;15.528;2023-03-13T12:49:34;97553.63;;;2.81;100.00
12664;BME280;6396;58.490;15.528;2023-03-13T12:52:16;97545.81;;;2.81;100.00
12664;BME280;6396;58.490;15.528;2023-03-13T12:54:55;97483.69;;;1.74;100.00
12664;BME280;6396;58.490;15.528;2023-03-13T12:58:04;97530.03;;;2.84;100.00
12664;BME280;6396;58.490;15.528;2023-03-13T13:00:36;97562.13;;;2.84;100.00
12664;BME280;6396;58.490;15.528;2023-03-13T13:03:13;97046.38;;;0.18;100.00
12664;BME280;6396;58.490;15.528;2023-03-13T13:05:58;97554.78;;;2.94;100.00
12664;BME280;6396;58.490;15.528;2023-03-13T13:08:32;97249.53;;;1.00;100.00
12664;BME280;6396;58.490;15.528;2023-03-13T13:13:59;97473.44;;;3.06;100.00
12664;BME280;6396;58.490;15.528;2023-03-13T13:16:27;97421.28;;;2.52;100.00
12664;BME280;6396;58.490;15.528;2023-03-13T13:19:10;97297.06;;;2.18;100.00
12664;BME280;6396;58.490;15.528;2023-03-13T13:22:44;97439.19;;;3.13;100.00
12664;BME280;6396;58.490;15.528;2023-03-13T13:25:28;97382.34;;;2.86;100.00
12664;BME280;6396;58.490;15.528;2023-03-13T13:27:56;97422.56;;;3.16;100.00
12664;BME280;6396;58.490;15.528;2023-03-13T13:30:36;97072.16;;;1.18;100.00
12664;BME280;6396;58.490;15.528;2023-03-13T13:33:34;97402.06;;;3.27;100.00
12664;BME280;6396;58.490;15.528;2023-03-13T13:36:29;97391.75;;;3.24;100.00
12664;BME280;6396;58.490;15.528;2023-03-13T13:38:57;97425.63;;;3.24;100.00
12664;BME280;6396;58.490;15.528;2023-03-13T13:41:33;97386.25;;;3.30;100.00
12664;BME280;6396;58.490;15.528;2023-03-13T13:44:20;97294.06;;;2.63;100.00
12664;BME280;6396;58.490;15.528;2023-03-13T13:46:47;97358.56;;;3.27;100.00
12664;BME280;6396;58.490;15.528;2023-03-13T13:49:16;97114.75;;;1.51;100.00
12664;BME280;6396;58.490;15.528;2023-03-13T13:52:17;96936.72;;;0.90;100.00
12664;BME280;6396;58.490;15.528;2023-03-13T13:54:55;97218.72;;;2.77;100.00
12664;BME280;6396;58.490;15.528;2023-03-13T13:57:25;97356.28;;;3.38;100.00
12664;BME280;6396;58.490;15.528;2023-03-13T13:59:58;97306.59;;;3.41;100.00
12664;BME280;6396;58.490;15.528;2023-03-13T14:02:34;97365.56;;;3.44;100.00
12664;BME280;6396;58.490;15.528;2023-03-13T14:05:04;96998.41;;;1.56;100.00